Etusivu
METAR-TAF:

METAR-TAF

Lentoasemat :

Gardermoenin lentoasema

Oslo, Norja

Leveyspiiri: 60-12N, Pituuspiiri: 011-05E, korkeus merenpinnasta: 208 m

Tämänhetkinen sää

Tämä raportti tehtiin 30 minuuttia sitten, kello 13.50 UTC
Tuuli 9 kn pohjoisesta/koillisesta, vaihdellen luoteen ja idän/koillisen välillä
Lämpötila 9°C
Kosteus 29%
Ilmanpaine 1003 hPa
Näkyvyys 10 km tai enemmän
ei pilviä alle 1500 m:ssä eikä cumulonimbus-pilviä

METAR: ENGM 161350Z 02009KT 320V070 CAVOK 09/M08 Q1003 NOSIG

Aika: 16:20 (14:20 UTC)

Sääennuste

Tämä raportti tehtiin 3 tuntia ja 20 minuuttia sitten, kello 11.00 UTC
Ennuste voimassa 16. päivästä klo 12 UTC - 17. päivään klo 12 UTC
Tuuli 8 kn pohjoisesta
Näkyvyys 10 km tai enemmän
ei pilviä alle 1500 m:ssä eikä cumulonimbus-pilviä

TAF: ENGM 161100Z 1612/1712 01008KT CAVOK

Säähavainnot ja -ennusteet yli 4000 lentoasemalta (METAR- ja TAF-raportit).

Käytössä olevat sääasemat on merkitty karttaan keltaisilla ja punaisilla pisteillä.

Aseta hiiri pisteen päälle nähdäksesi sääaseman nimen.

Klikkaa sitten nähdäksesi säähavainnot ja -ennusteet.

Kartan vaihtaminen: klikkaa mustalla rastilla varustettuja vihreitä pisteitä, niin voit zoomata sisään; viivalla varustettua vihreää pistettä, niin voit zoomata ulos tai vihreitä nuolia, niin pääset viereisille kartoille.


METAR-TAF: